Southeast Iowa Regional Airport Burlington US
ICAO: KBRL
IATA: BRL
Category: Medium
Scheduled Services: Yes

Elevation: 698 ft
TransAlt. 18000 ft.

Airport Communications:
ASOS:118.025
CHICAGO CNTR:135.6
FORT DODGE RDO:122.65
CTAF/UNICOM:123

KBRL Zoom In..

Runways:

(A) RW 12 length 5351 ft width 100 ft
---- / hdg 119

(B) RW 18 length 6701 ft width 150 ft
---- / hdg 179

(C) RW 30 length 5351 ft width 100 ft
---- / hdg 299

(D) RW 36 length 6701 ft width 150 ft
ILS 108.90 / hdg 359

Location; KBRL
Day. 22 / Time. 23.53 Zulu
* Altimeter: 29.49
* Temperature: 04° c. 39.2°f.
* Wind from: 210° Speed 09 kn.
Dewpoint: -01° c.
Visibility: 10 Statute Miles.
Clouds: Few 5500 ft.
Clouds: Overcast 8000 ft.

KBRL 222353Z AUTO 21009KT 10SM FEW055 OVC080 04/M01 A2949 RMK AO2 SLP990 T00391011 10117 20039 51018


Wind From 210°
Speed 09 kn.

YouTube Music Video
 
jpsmedia.com for Web Design  worldairports.se 2018   terms of use